createdAt,value
2022-09-04T00:01:54.196Z,101841.41
2022-09-04T00:04:26.635Z,101843.88
2022-09-04T00:07:21.804Z,101842.28
2022-09-04T00:10:12.441Z,101841.25
2022-09-04T00:12:49.205Z,101842.28
2022-09-04T00:15:26.716Z,101836.09
2022-09-04T00:18:00.699Z,101835.66
2022-09-04T00:20:41.301Z,101830.94
2022-09-04T00:23:49.817Z,101830.28
2022-09-04T00:26:42.903Z,101829.41
2022-09-04T00:29:24.900Z,101827.53
2022-09-04T00:32:02.144Z,101827.38
2022-09-04T00:34:59.979Z,101827.78
2022-09-04T00:37:31.786Z,101832.25
2022-09-04T00:40:06.442Z,101828.78
2022-09-04T00:42:54.911Z,101834.53
2022-09-04T00:45:46.578Z,101840.00
2022-09-04T00:48:30.731Z,101836.03
2022-09-04T00:51:21.720Z,101838.66
2022-09-04T00:54:03.328Z,101844.47
2022-09-04T00:56:45.873Z,101840.13
2022-09-04T00:59:32.771Z,101843.09
2022-09-04T01:02:08.768Z,101846.78
2022-09-04T01:04:40.517Z,101841.19
2022-09-04T01:07:33.740Z,101850.72
2022-09-04T01:10:26.572Z,101842.38
2022-09-04T01:13:25.731Z,101836.34
2022-09-04T01:16:00.412Z,101842.34
2022-09-04T01:18:35.126Z,101839.50
2022-09-04T01:21:14.912Z,101831.22
2022-09-04T01:23:56.592Z,101833.50
2022-09-04T01:26:33.085Z,101835.56
2022-09-04T01:29:18.308Z,101842.13
2022-09-04T01:31:47.715Z,101848.69
2022-09-04T01:34:35.322Z,101847.22
2022-09-04T01:37:29.640Z,101855.03
2022-09-04T01:40:21.739Z,101851.38
2022-09-04T01:42:52.887Z,101859.94
2022-09-04T01:45:30.198Z,101850.44
2022-09-04T01:48:02.909Z,101857.38
2022-09-04T01:50:32.896Z,101855.97
2022-09-04T01:53:15.204Z,101860.94
2022-09-04T01:55:47.694Z,101863.38
2022-09-04T01:58:27.636Z,101857.13
2022-09-04T02:01:08.694Z,101865.16
2022-09-04T02:03:46.142Z,101861.50
2022-09-04T02:06:31.083Z,101859.97
2022-09-04T02:09:11.103Z,101864.78
2022-09-04T02:11:40.290Z,101861.66
2022-09-04T02:14:15.094Z,101867.78
2022-09-04T02:16:57.187Z,101867.84
2022-09-04T02:19:35.754Z,101869.88
2022-09-04T02:22:44.549Z,101875.38
2022-09-04T02:25:28.543Z,101869.56
2022-09-04T02:28:23.336Z,101865.66
2022-09-04T02:30:54.586Z,101874.88
2022-09-04T02:33:35.480Z,101871.78
2022-09-04T02:36:12.267Z,101867.59
2022-09-04T02:38:47.942Z,101870.91
2022-09-04T02:41:37.221Z,101866.88
2022-09-04T02:44:25.603Z,101864.91
2022-09-04T02:47:13.959Z,101875.06
2022-09-04T02:50:07.734Z,101875.88
2022-09-04T02:52:40.048Z,101876.34
2022-09-04T02:55:25.273Z,101870.00
2022-09-04T02:58:08.115Z,101875.84
2022-09-04T03:00:46.423Z,101883.72
2022-09-04T03:03:22.156Z,101880.09
2022-09-04T03:06:18.372Z,101885.88
2022-09-04T03:08:53.419Z,101887.97
2022-09-04T03:11:31.980Z,101889.34
2022-09-04T03:14:15.909Z,101894.06
2022-09-04T03:16:42.179Z,101895.66
2022-09-04T03:19:21.016Z,101910.97
2022-09-04T03:21:52.348Z,101909.00
2022-09-04T03:24:57.948Z,101907.09
2022-09-04T03:27:24.989Z,101908.47
2022-09-04T03:30:08.399Z,101909.56
2022-09-04T03:32:44.383Z,101913.09
2022-09-04T03:35:39.895Z,101911.31
2022-09-04T03:38:14.476Z,101903.72
2022-09-04T03:41:11.111Z,101909.09
2022-09-04T03:43:50.917Z,101910.66
2022-09-04T03:46:17.346Z,101905.81
2022-09-04T03:49:03.963Z,101904.00
2022-09-04T03:51:53.563Z,101907.50
2022-09-04T03:54:45.724Z,101905.91
2022-09-04T03:57:24.739Z,101904.00
2022-09-04T04:00:08.536Z,101901.44
2022-09-04T04:02:51.356Z,101900.44
2022-09-04T04:05:26.015Z,101907.09
2022-09-04T04:07:59.951Z,101902.91
2022-09-04T04:10:46.317Z,101901.91
2022-09-04T04:13:23.117Z,101899.22
2022-09-04T04:16:03.467Z,101891.28
2022-09-04T04:18:48.831Z,101904.94
2022-09-04T04:21:39.685Z,101903.13
2022-09-04T04:24:29.912Z,101907.56
2022-09-04T04:27:25.619Z,101907.25
2022-09-04T04:29:55.090Z,101910.22
2022-09-04T04:32:45.814Z,101912.41
2022-09-04T04:35:28.549Z,101906.16
2022-09-04T04:37:55.689Z,101917.00
2022-09-04T04:40:53.157Z,101916.31
2022-09-04T04:43:44.452Z,101922.47
2022-09-04T04:46:34.745Z,101922.97
2022-09-04T04:49:34.052Z,101926.56
2022-09-04T04:52:18.919Z,101935.13
2022-09-04T04:55:07.542Z,101937.47
2022-09-04T04:57:57.929Z,101938.09
2022-09-04T05:00:32.162Z,101936.06
2022-09-04T05:03:08.122Z,101947.31
2022-09-04T05:05:49.934Z,101952.09
2022-09-04T05:08:25.913Z,101956.28
2022-09-04T05:11:12.611Z,101949.81
2022-09-04T05:13:48.725Z,101956.19
2022-09-04T05:16:51.176Z,101961.63
2022-09-04T05:19:57.658Z,101967.16
2022-09-04T05:22:48.814Z,101963.28
2022-09-04T05:25:40.102Z,101964.38
2022-09-04T05:28:31.459Z,101970.69
2022-09-04T05:31:18.251Z,101979.94
2022-09-04T05:34:08.128Z,101976.91
2022-09-04T05:37:09.703Z,101981.97
2022-09-04T05:40:00.543Z,101989.41
2022-09-04T05:43:01.102Z,101987.75
2022-09-04T05:45:53.405Z,101992.06
2022-09-04T05:48:27.475Z,101976.19
2022-09-04T05:51:22.831Z,101993.22
2022-09-04T05:54:22.127Z,101991.91
2022-09-04T05:57:17.890Z,101996.31
2022-09-04T06:00:04.665Z,101996.94
2022-09-04T06:03:02.062Z,102006.03
2022-09-04T06:06:07.567Z,102009.75
2022-09-04T06:08:53.868Z,102015.09
2022-09-04T06:11:51.408Z,102015.06
2022-09-04T06:14:35.693Z,102022.72
2022-09-04T06:17:33.032Z,102032.03
2022-09-04T06:20:14.670Z,102019.97
2022-09-04T06:22:53.815Z,102026.03
2022-09-04T06:25:53.746Z,102032.88
2022-09-04T06:28:43.730Z,102038.53
2022-09-04T06:31:18.738Z,102045.66
2022-09-04T06:34:00.420Z,102052.75
2022-09-04T06:36:45.346Z,102060.19
2022-09-04T06:39:31.671Z,102049.06
2022-09-04T06:42:56.128Z,102062.69
2022-09-04T06:45:44.210Z,102058.75
2022-09-04T06:48:47.024Z,102055.25
2022-09-04T06:51:42.791Z,102054.44
2022-09-04T06:54:42.898Z,102062.50
2022-09-04T06:57:46.858Z,102056.22
2022-09-04T07:00:15.335Z,102053.78
2022-09-04T07:03:29.846Z,102056.09
2022-09-04T07:06:12.995Z,102068.53
2022-09-04T07:09:05.112Z,102065.34
2022-09-04T07:11:48.205Z,102058.00
2022-09-04T07:14:17.210Z,102065.84
2022-09-04T07:16:48.778Z,102067.53
2022-09-04T07:19:40.139Z,102079.59
2022-09-04T07:22:26.726Z,102068.78
2022-09-04T07:24:56.932Z,102083.75
2022-09-04T07:27:46.602Z,102068.16
2022-09-04T07:30:14.884Z,102072.91
2022-09-04T07:32:50.949Z,102073.03
2022-09-04T07:35:38.275Z,102084.84
2022-09-04T07:40:59.215Z,102084.38
2022-09-04T07:44:17.890Z,102079.78
2022-09-04T07:46:57.544Z,102094.16
2022-09-04T07:49:32.103Z,102084.31
2022-09-04T07:52:07.715Z,102096.56
2022-09-04T07:55:08.932Z,102077.81
2022-09-04T07:57:45.605Z,102077.78
2022-09-04T08:00:16.676Z,102077.28
2022-09-04T08:03:03.982Z,102061.50
2022-09-04T08:05:37.020Z,102068.69
2022-09-04T08:08:43.299Z,102086.00
2022-09-04T08:11:16.203Z,102090.44
2022-09-04T08:14:15.456Z,102090.00
2022-09-04T08:17:03.621Z,102097.47
2022-09-04T08:19:41.718Z,102099.41
2022-09-04T08:22:13.355Z,102097.16
2022-09-04T08:25:17.082Z,102099.91
2022-09-04T08:28:09.143Z,102100.22
2022-09-04T08:30:42.364Z,102108.84
2022-09-04T08:33:51.155Z,102098.47
2022-09-04T08:36:30.296Z,102101.19
2022-09-04T08:39:07.683Z,102093.41
2022-09-04T08:41:41.911Z,102101.03
2022-09-04T08:44:48.554Z,102104.19
2022-09-04T08:47:36.882Z,102113.59
2022-09-04T08:50:40.687Z,102131.19
2022-09-04T08:53:26.042Z,102141.09
2022-09-04T08:56:08.542Z,102139.16
2022-09-04T08:58:56.759Z,102133.38
2022-09-04T09:01:35.836Z,102143.78
2022-09-04T09:04:15.490Z,102126.06
2022-09-04T09:07:16.348Z,102133.50
2022-09-04T09:09:51.309Z,102134.97
2022-09-04T09:12:55.138Z,102138.66
2022-09-04T09:15:51.355Z,102143.69
2022-09-04T09:18:40.670Z,102144.16
2022-09-04T09:21:15.206Z,102117.22
2022-09-04T09:24:08.497Z,102130.84
2022-09-04T09:27:10.209Z,102118.53
2022-09-04T09:29:56.835Z,102106.81
2022-09-04T09:33:09.763Z,102107.72
2022-09-04T09:36:14.759Z,102111.31
2022-09-04T09:38:59.217Z,102119.34
2022-09-04T09:41:34.880Z,102114.16
2022-09-04T09:44:41.609Z,102108.31
2022-09-04T09:47:33.131Z,102101.97
2022-09-04T09:50:20.570Z,102090.03
2022-09-04T09:52:52.707Z,102100.38
2022-09-04T09:55:43.899Z,102089.88
2022-09-04T09:58:48.007Z,102097.84
2022-09-04T10:01:59.214Z,102106.06
2022-09-04T10:04:50.762Z,102120.25
2022-09-04T10:07:38.362Z,102116.59
2022-09-04T10:10:26.109Z,102123.47
2022-09-04T10:13:10.685Z,102130.97
2022-09-04T10:15:37.626Z,102113.38
2022-09-04T10:18:24.254Z,102109.22
2022-09-04T10:21:28.492Z,102100.41
2022-09-04T10:23:58.732Z,102105.66
2022-09-04T10:26:46.635Z,102120.41
2022-09-04T10:29:28.680Z,102097.22
2022-09-04T10:32:16.960Z,102100.00
2022-09-04T10:35:16.151Z,102108.44
2022-09-04T10:38:14.568Z,102100.78
2022-09-04T10:41:18.850Z,102107.38
2022-09-04T10:44:01.076Z,102102.63
2022-09-04T10:46:40.547Z,102104.44
2022-09-04T10:49:35.031Z,102112.78
2022-09-04T10:52:08.858Z,102122.44
2022-09-04T10:55:11.602Z,102104.66
2022-09-04T10:58:17.042Z,102111.50
2022-09-04T11:01:16.083Z,102101.59
2022-09-04T11:04:01.007Z,102098.97
2022-09-04T11:07:04.701Z,102084.56
2022-09-04T11:09:53.960Z,102089.09
2022-09-04T11:12:41.867Z,102087.28
2022-09-04T11:15:17.428Z,102092.75
2022-09-04T11:17:54.508Z,102099.19
2022-09-04T11:20:45.012Z,102096.84
2022-09-04T11:23:45.190Z,102084.19
2022-09-04T11:26:28.883Z,102102.75
2022-09-04T11:29:20.173Z,102090.09
2022-09-04T11:31:57.521Z,102079.72
2022-09-04T11:35:03.871Z,102075.16
2022-09-04T11:37:57.783Z,102095.44
2022-09-04T11:40:42.787Z,102111.00
2022-09-04T11:43:15.329Z,102112.31
2022-09-04T11:46:11.485Z,102114.63
2022-09-04T11:48:50.109Z,102121.63
2022-09-04T11:51:41.892Z,102127.63
2022-09-04T11:54:32.137Z,102103.97
2022-09-04T11:57:23.331Z,102102.38
2022-09-04T12:00:08.092Z,102092.50
2022-09-04T12:03:12.256Z,102089.19
2022-09-04T12:05:59.764Z,102077.69
2022-09-04T12:08:50.796Z,102084.72
2022-09-04T12:11:44.063Z,102076.09
2022-09-04T12:14:36.299Z,102081.13
2022-09-04T12:17:34.458Z,102066.03
2022-09-04T12:20:10.131Z,102063.81
2022-09-04T12:23:01.527Z,102078.78
2022-09-04T12:25:50.074Z,102060.69
2022-09-04T12:28:37.832Z,102068.19
2022-09-04T12:31:31.600Z,102027.13
2022-09-04T12:34:01.589Z,102041.91
2022-09-04T12:36:52.050Z,102036.28
2022-09-04T12:39:26.392Z,102053.38
2022-09-04T12:42:21.494Z,102037.31
2022-09-04T12:45:13.800Z,102054.13
2022-09-04T12:47:43.150Z,102073.25
2022-09-04T12:50:10.206Z,102043.34
2022-09-04T12:53:03.041Z,102070.78
2022-09-04T12:55:41.638Z,102083.34
2022-09-04T12:58:33.758Z,102093.91
2022-09-04T13:01:13.851Z,102087.13
2022-09-04T13:03:52.613Z,102070.38
2022-09-04T13:06:27.967Z,102080.75
2022-09-04T13:09:20.599Z,102070.63
2022-09-04T13:11:57.390Z,102071.63
2022-09-04T13:14:51.810Z,102083.00
2022-09-04T13:17:53.743Z,102085.88
2022-09-04T13:20:34.972Z,102072.41
2022-09-04T13:23:19.485Z,102089.81
2022-09-04T13:26:02.073Z,102088.66
2022-09-04T13:28:47.855Z,102073.81
2022-09-04T13:31:15.130Z,102073.66
2022-09-04T13:33:51.301Z,102092.16
2022-09-04T13:36:37.373Z,102082.47
2022-09-04T13:39:15.887Z,102086.16
2022-09-04T13:42:01.056Z,102095.16
2022-09-04T13:44:34.189Z,102094.97
2022-09-04T13:47:08.963Z,102098.44
2022-09-04T13:49:40.456Z,102093.28
2022-09-04T13:52:27.786Z,102082.66
2022-09-04T13:55:08.120Z,102083.25
2022-09-04T13:57:57.504Z,102105.78
2022-09-04T14:00:26.504Z,102081.91
2022-09-04T14:03:00.478Z,102097.09
2022-09-04T14:05:28.866Z,102091.38
2022-09-04T14:08:02.801Z,102092.00
2022-09-04T14:11:02.021Z,102086.34
2022-09-04T14:13:44.895Z,102114.56
2022-09-04T14:16:13.899Z,102107.41
2022-09-04T14:19:08.831Z,102122.47
2022-09-04T14:22:10.615Z,102123.13
2022-09-04T14:24:56.341Z,102129.13
2022-09-04T14:27:22.743Z,102135.41
2022-09-04T14:30:01.036Z,102155.31
2022-09-04T14:33:07.413Z,102156.28
2022-09-04T14:35:36.783Z,102156.97
2022-09-04T14:38:26.367Z,102162.94
2022-09-04T14:41:08.459Z,102178.84
2022-09-04T14:43:59.328Z,102180.59
2022-09-04T14:46:31.969Z,102180.44
2022-09-04T14:49:02.152Z,102161.91
2022-09-04T14:51:28.883Z,102167.47
2022-09-04T14:53:55.972Z,102177.47
2022-09-04T14:56:28.747Z,102178.00
2022-09-04T14:59:07.088Z,102195.59
2022-09-04T15:01:35.836Z,102192.41
2022-09-04T15:04:14.755Z,102186.66
2022-09-04T15:07:09.822Z,102187.75
2022-09-04T15:09:38.350Z,102186.28
2022-09-04T15:12:25.697Z,102174.81
2022-09-04T15:15:10.137Z,102198.97
2022-09-04T15:17:39.183Z,102181.13
2022-09-04T15:20:28.457Z,102187.47
2022-09-04T15:23:17.576Z,102184.69
2022-09-04T15:25:59.120Z,102202.28
2022-09-04T15:28:38.282Z,102216.56
2022-09-04T15:31:17.234Z,102191.34
2022-09-04T15:33:46.235Z,102205.03
2022-09-04T15:36:20.063Z,102213.66
2022-09-04T15:39:00.400Z,102213.97
2022-09-04T15:41:37.738Z,102202.47
2022-09-04T15:44:20.928Z,102205.81
2022-09-04T15:49:44.577Z,102203.63
2022-09-04T15:52:31.403Z,102212.19
2022-09-04T15:55:08.359Z,102219.59
2022-09-04T15:57:47.263Z,102210.72
2022-09-04T16:00:16.084Z,102218.97
2022-09-04T16:03:08.935Z,102221.28
2022-09-04T16:05:44.995Z,102223.56
2022-09-04T16:08:25.725Z,102221.53
2022-09-04T16:11:12.093Z,102224.19
2022-09-04T16:13:50.991Z,102216.09
2022-09-04T16:16:24.970Z,102209.38
2022-09-04T16:19:07.315Z,102223.59
2022-09-04T16:22:03.174Z,102207.44
2022-09-04T16:24:44.280Z,102211.09
2022-09-04T16:27:17.479Z,102213.03
2022-09-04T16:29:51.149Z,102221.53
2022-09-04T16:32:22.864Z,102206.25
2022-09-04T16:35:19.010Z,102202.56
2022-09-04T16:37:52.848Z,102214.75
2022-09-04T16:40:48.791Z,102217.19
2022-09-04T16:43:34.142Z,102206.91
2022-09-04T16:46:25.275Z,102213.13
2022-09-04T16:48:52.884Z,102213.25
2022-09-04T16:51:58.778Z,102213.25
2022-09-04T16:54:31.039Z,102220.19
2022-09-04T16:57:13.611Z,102224.84
2022-09-04T16:59:46.131Z,102233.03
2022-09-04T17:02:41.772Z,102249.03
2022-09-04T17:05:17.623Z,102250.53
2022-09-04T17:07:50.807Z,102254.06
2022-09-04T17:10:41.397Z,102262.00
2022-09-04T17:13:21.981Z,102254.78
2022-09-04T17:16:02.764Z,102267.25
2022-09-04T17:18:30.443Z,102269.75
2022-09-04T17:24:01.289Z,102272.91
2022-09-04T17:28:55.487Z,102275.22
2022-09-04T17:29:12.650Z,102283.72
2022-09-04T17:29:47.765Z,102282.66
2022-09-04T17:34:07.057Z,102294.91
2022-09-04T17:40:36.393Z,102288.50
2022-09-04T17:40:48.982Z,102286.41
2022-09-04T17:41:48.586Z,102284.78
2022-09-04T17:44:33.910Z,102278.56
2022-09-04T17:47:06.938Z,102276.94
2022-09-04T17:49:34.725Z,102288.53
2022-09-04T17:52:07.088Z,102288.94
2022-09-04T17:54:39.145Z,102288.13
2022-09-04T17:57:42.585Z,102295.16
2022-09-04T18:00:20.225Z,102293.69
2022-09-04T18:02:54.000Z,102297.22
2022-09-04T18:05:25.665Z,102297.00
2022-09-04T18:08:11.705Z,102295.09
2022-09-04T18:10:57.963Z,102292.84
2022-09-04T18:13:37.157Z,102294.31
2022-09-04T18:16:20.073Z,102294.88
2022-09-04T18:18:53.009Z,102298.41
2022-09-04T18:21:31.185Z,102295.91
2022-09-04T18:24:03.506Z,102295.47
2022-09-04T18:26:45.601Z,102298.59
2022-09-04T18:32:57.627Z,102299.84
2022-09-04T18:37:09.373Z,102299.59
2022-09-04T18:37:15.727Z,102299.22
2022-09-04T18:38:15.917Z,102305.03
2022-09-04T18:44:31.896Z,102295.88
2022-09-04T18:50:31.292Z,102304.13
2022-09-04T18:50:38.073Z,102313.81
2022-09-04T18:50:51.556Z,102306.41
2022-09-04T18:52:15.862Z,102326.66
2022-09-04T18:54:47.809Z,102327.91
2022-09-04T18:57:33.531Z,102323.16
2022-09-04T19:00:09.955Z,102329.91
2022-09-04T19:03:13.458Z,102328.69
2022-09-04T19:05:45.102Z,102330.72
2022-09-04T19:08:22.035Z,102335.53
2022-09-04T19:10:53.519Z,102329.66
2022-09-04T19:13:53.529Z,102326.78
2022-09-04T19:16:36.421Z,102318.47
2022-09-04T19:19:17.451Z,102320.94
2022-09-04T19:21:57.766Z,102318.47
2022-09-04T19:24:39.106Z,102323.53
2022-09-04T19:27:25.072Z,102324.66
2022-09-04T19:30:03.576Z,102336.75
2022-09-04T19:33:11.647Z,102340.03
2022-09-04T19:35:41.082Z,102340.81
2022-09-04T19:44:05.319Z,102326.97
2022-09-04T19:46:00.850Z,102330.47
2022-09-04T19:46:12.709Z,102332.94
2022-09-04T19:47:27.335Z,102330.00
2022-09-04T19:53:03.464Z,102326.97
2022-09-04T19:53:31.647Z,102320.94
2022-09-04T19:55:49.934Z,102322.22
2022-09-04T19:58:51.613Z,102332.69
2022-09-04T20:01:24.836Z,102335.34
2022-09-04T20:04:01.747Z,102332.66
2022-09-04T20:06:50.747Z,102333.69
2022-09-04T20:09:33.522Z,102331.59
2022-09-04T20:12:10.881Z,102334.25
2022-09-04T20:14:46.121Z,102344.22
2022-09-04T20:17:31.456Z,102339.84
2022-09-04T20:20:01.469Z,102347.75
2022-09-04T20:22:37.292Z,102338.66
2022-09-04T20:25:24.481Z,102340.13
2022-09-04T20:27:55.374Z,102336.34
2022-09-04T20:30:24.711Z,102339.06
2022-09-04T20:33:06.538Z,102334.94
2022-09-04T20:35:42.501Z,102342.31
2022-09-04T20:38:23.445Z,102338.66
2022-09-04T20:40:55.064Z,102341.28
2022-09-04T20:43:31.637Z,102329.09
2022-09-04T20:51:06.322Z,102334.28
2022-09-04T20:52:57.020Z,102332.69
2022-09-04T20:52:59.685Z,102330.66
2022-09-04T20:55:01.331Z,102338.72
2022-09-04T21:03:12.415Z,102335.59
2022-09-04T21:03:17.780Z,102334.78
2022-09-04T21:03:44.925Z,102341.81
2022-09-04T21:06:32.320Z,102341.25
2022-09-04T21:09:30.515Z,102343.44
2022-09-04T21:12:29.715Z,102329.66
2022-09-04T21:15:04.297Z,102339.22
2022-09-04T21:17:59.192Z,102346.25
2022-09-04T21:20:29.778Z,102340.03
2022-09-04T21:23:35.258Z,102341.44
2022-09-04T21:26:27.827Z,102338.53
2022-09-04T21:29:17.533Z,102344.06
2022-09-04T21:31:55.380Z,102351.53
2022-09-04T21:34:47.558Z,102344.47
2022-09-04T21:37:39.890Z,102344.28
2022-09-04T21:40:49.654Z,102341.59
2022-09-04T21:43:24.836Z,102346.50
2022-09-04T21:46:43.763Z,102351.41
2022-09-04T21:49:41.427Z,102353.28
2022-09-04T21:52:56.235Z,102356.84
2022-09-04T22:02:07.962Z,102356.09
2022-09-04T22:02:36.872Z,102356.34
2022-09-04T22:02:38.112Z,102355.88
2022-09-04T22:05:22.693Z,102362.63
2022-09-04T22:13:29.532Z,102361.72
2022-09-04T22:13:43.727Z,102359.78
2022-09-04T22:13:50.440Z,102365.00
2022-09-04T22:16:42.147Z,102356.09
2022-09-04T22:19:36.385Z,102352.63
2022-09-04T22:22:24.047Z,102356.72
2022-09-04T22:25:30.287Z,102360.03
2022-09-04T22:28:15.735Z,102362.28
2022-09-04T22:31:24.832Z,102351.63
2022-09-04T22:34:18.810Z,102357.69
2022-09-04T22:37:30.443Z,102357.59
2022-09-04T22:40:06.068Z,102352.69
2022-09-04T22:42:51.661Z,102354.66
2022-09-04T22:45:25.590Z,102354.00
2022-09-04T22:48:25.121Z,102350.91
2022-09-04T22:51:16.437Z,102350.81
2022-09-04T22:53:58.018Z,102345.84
2022-09-04T22:56:43.463Z,102357.75
2022-09-04T22:59:38.987Z,102353.88
2022-09-04T23:02:54.094Z,102359.13
2022-09-04T23:05:41.606Z,102354.16
2022-09-04T23:13:36.047Z,102355.78
2022-09-04T23:13:46.232Z,102359.06
2022-09-04T23:14:44.523Z,102353.59
2022-09-04T23:17:18.861Z,102362.13
2022-09-04T23:25:59.883Z,102354.31
2022-09-04T23:26:43.219Z,102358.47
2022-09-04T23:26:43.939Z,102343.22
2022-09-04T23:29:41.128Z,102353.88
2022-09-04T23:32:24.947Z,102356.19
2022-09-04T23:35:16.161Z,102357.28
2022-09-04T23:38:07.111Z,102350.16
2022-09-04T23:40:44.203Z,102345.91
2022-09-04T23:43:19.375Z,102345.91
2022-09-04T23:46:00.876Z,102344.50
2022-09-04T23:48:40.705Z,102340.81
2022-09-04T23:51:45.930Z,102343.41
2022-09-04T23:54:49.926Z,102336.66
2022-09-04T23:57:26.888Z,102342.31
